Time;durP1;ratioP1;P1;durP2;ratioP2;P2;SDS_P1;SDS_P2;PMS_P1;PMS_P2;Temp;Humidity;BMP_temperature;BMP_pressure;BME280_temperature;BME280_humidity;BME280_pressure;Samples;Min_cycle;Max_cycle;Signal;HPM_P1;HPM_P2
2024/01/25 00:01:17;;;;;;;0.90;0.90;;;10.70;99.90;;;;;;5100341;27;20050;-86
2024/01/25 00:03:43;;;;;;;0.90;0.90;;;10.70;99.90;;;;;;5104541;27;20043;-86
2024/01/25 00:06:09;;;;;;;0.90;0.90;;;10.70;99.90;;;;;;5107710;27;20039;-86
2024/01/25 00:08:35;;;;;;;0.90;0.90;;;10.80;99.90;;;;;;5106404;27;20049;-87
2024/01/25 00:11:04;;;;;;;0.95;0.95;;;10.80;99.90;;;;;;5106495;27;20047;-87
2024/01/25 00:13:30;;;;;;;0.90;0.90;;;10.80;99.90;;;;;;5104446;27;20108;-86
2024/01/25 00:15:56;;;;;;;0.90;0.90;;;10.80;99.90;;;;;;5107437;27;20126;-87
2024/01/25 00:18:21;;;;;;;0.90;0.90;;;10.80;99.90;;;;;;5105228;27;20191;-87
2024/01/25 00:20:47;;;;;;;0.90;0.90;;;10.80;99.90;;;;;;5088082;27;20051;-85
2024/01/25 00:23:13;;;;;;;0.90;0.90;;;10.80;99.90;;;;;;5105933;27;20053;-86
2024/01/25 00:25:38;;;;;;;0.90;0.90;;;10.80;99.90;;;;;;5087450;27;20466;-87
2024/01/25 00:28:04;;;;;;;1.00;1.00;;;10.70;99.90;;;;;;5091595;27;20060;-87
2024/01/25 00:30:30;;;;;;;0.90;0.90;;;10.70;99.90;;;;;;5106765;27;20088;-86
2024/01/25 00:32:57;;;;;;;0.93;0.93;;;10.70;99.90;;;;;;5088438;27;20046;-87
2024/01/25 00:35:23;;;;;;;0.90;0.90;;;10.70;99.90;;;;;;5088408;27;20047;-87
2024/01/25 00:37:49;;;;;;;0.90;0.90;;;10.60;99.90;;;;;;5089572;27;20408;-86
2024/01/25 00:40:15;;;;;;;0.88;0.88;;;10.50;99.90;;;;;;5088258;28;20103;-86
2024/01/25 00:42:43;;;;;;;0.80;0.80;;;10.60;99.90;;;;;;5106046;28;20043;-86
2024/01/25 00:45:10;;;;;;;0.90;0.90;;;10.50;99.90;;;;;;5106195;28;20093;-87
2024/01/25 00:47:36;;;;;;;0.90;0.90;;;10.50;99.90;;;;;;5107104;28;20126;-86
2024/01/25 00:50:02;;;;;;;0.90;0.90;;;10.50;99.90;;;;;;5104058;28;20771;-85
2024/01/25 00:52:28;;;;;;;0.90;0.90;;;10.50;99.90;;;;;;5104920;27;20058;-86
2024/01/25 00:54:54;;;;;;;0.90;0.90;;;10.40;99.90;;;;;;5104893;28;20103;-86
2024/01/25 00:57:20;;;;;;;0.90;0.90;;;10.40;99.90;;;;;;5105136;28;20031;-87
2024/01/25 00:59:46;;;;;;;0.90;0.90;;;10.40;99.90;;;;;;5107373;27;20046;-87
2024/01/25 01:02:13;;;;;;;1.00;1.00;;;10.40;99.90;;;;;;5105078;28;20067;-86
2024/01/25 01:04:40;;;;;;;1.00;1.00;;;10.40;99.90;;;;;;5103941;27;20143;-86
2024/01/25 01:07:06;;;;;;;2.05;1.35;;;10.30;99.90;;;;;;5107196;27;20047;-87
2024/01/25 01:09:32;;;;;;;1.02;1.02;;;10.30;99.90;;;;;;5104476;28;20047;-86
2024/01/25 01:11:58;;;;;;;1.10;1.10;;;10.30;99.90;;;;;;5106823;27;20046;-86
2024/01/25 01:14:24;;;;;;;1.25;1.25;;;10.20;99.90;;;;;;5093290;27;20403;-87
2024/01/25 01:16:50;;;;;;;1.10;1.10;;;10.20;99.90;;;;;;5093607;27;20035;-86
2024/01/25 01:19:16;;;;;;;1.23;1.23;;;10.20;99.90;;;;;;5109530;27;20075;-88
2024/01/25 01:21:43;;;;;;;1.10;1.10;;;10.10;99.90;;;;;;5111342;27;20039;-87
2024/01/25 01:24:12;;;;;;;1.30;1.30;;;10.00;99.90;;;;;;5109874;27;20054;-87
2024/01/25 01:26:38;;;;;;;1.55;1.45;;;9.90;1.00;;;;;;5108191;27;20073;-86
2024/01/25 01:29:04;;;;;;;1.48;1.40;;;9.80;1.00;;;;;;5109354;27;20075;-87
2024/01/25 01:31:29;;;;;;;1.85;1.75;;;9.80;1.00;;;;;;5109840;27;20074;-86
2024/01/25 01:33:55;;;;;;;1.95;1.85;;;9.70;1.00;;;;;;5109672;27;20035;-86
2024/01/25 01:36:21;;;;;;;1.88;1.77;;;9.60;1.00;;;;;;5092718;27;20080;-87
2024/01/25 01:38:47;;;;;;;2.05;1.95;;;9.60;57.00;;;;;;5109698;27;20085;-86
2024/01/25 01:41:13;;;;;;;2.00;1.90;;;9.60;93.70;;;;;;5092857;27;20059;-86
2024/01/25 01:43:39;;;;;;;2.10;2.00;;;9.50;99.90;;;;;;5108946;27;20176;-87
2024/01/25 01:46:11;;;;;;;2.15;2.05;;;9.50;99.90;;;;;;5112327;27;20552;-87
2024/01/25 01:48:39;;;;;;;2.08;1.98;;;9.50;99.90;;;;;;5108855;27;20050;-87
2024/01/25 01:51:05;;;;;;;1.92;1.83;;;9.50;99.90;;;;;;5095406;27;20122;-87
2024/01/25 01:53:33;;;;;;;1.95;1.85;;;9.50;99.90;;;;;;5110014;27;20038;-86
2024/01/25 01:55:59;;;;;;;2.00;1.90;;;9.50;99.90;;;;;;5108796;27;20126;-87
2024/01/25 01:58:26;;;;;;;1.90;1.80;;;9.40;99.90;;;;;;5108810;27;20070;-86
2024/01/25 02:00:54;;;;;;;1.80;1.70;;;9.40;99.90;;;;;;5109559;27;20484;-86
2024/01/25 02:03:19;;;;;;;1.90;1.80;;;9.30;99.90;;;;;;5109766;27;20107;-87
2024/01/25 02:05:45;;;;;;;1.77;1.67;;;9.30;99.90;;;;;;5109080;27;20430;-86
2024/01/25 02:08:11;;;;;;;1.73;1.63;;;9.30;99.90;;;;;;5110417;27;20050;-86
2024/01/25 02:10:36;;;;;;;1.60;1.50;;;9.30;99.90;;;;;;5092789;27;20135;-86
2024/01/25 02:13:02;;;;;;;1.60;1.50;;;9.20;99.90;;;;;;5107896;27;20035;-87
2024/01/25 02:15:28;;;;;;;1.50;1.42;;;9.20;99.90;;;;;;5109163;27;20073;-86
2024/01/25 02:17:53;;;;;;;1.60;1.50;;;9.20;99.90;;;;;;5109424;27;20102;-84
2024/01/25 02:20:19;;;;;;;1.38;1.35;;;9.20;1.00;;;;;;5104095;27;20130;-87
2024/01/25 02:22:45;;;;;;;1.27;1.27;;;9.20;1.00;;;;;;5104885;27;20047;-86
2024/01/25 02:25:10;;;;;;;1.27;1.27;;;9.20;1.00;;;;;;5109703;27;20042;-87
2024/01/25 02:27:38;;;;;;;1.60;1.50;;;9.20;1.00;;;;;;5107556;27;20796;-86
2024/01/25 02:30:06;;;;;;;1.30;1.30;;;9.10;1.00;;;;;;5108103;27;20036;-86
2024/01/25 02:32:32;;;;;;;1.27;1.27;;;9.10;1.00;;;;;;5110221;27;20507;-86
2024/01/25 02:34:58;;;;;;;1.17;1.17;;;9.00;1.00;;;;;;5108167;27;20043;-86
2024/01/25 02:37:24;;;;;;;1.17;1.17;;;9.10;1.00;;;;;;5108196;27;20481;-86
2024/01/25 02:39:50;;;;;;;1.20;1.20;;;9.00;1.00;;;;;;5109900;27;20502;-86
2024/01/25 02:42:16;;;;;;;1.13;1.13;;;9.00;1.00;;;;;;5091272;27;20710;-86
2024/01/25 02:44:43;;;;;;;1.13;1.13;;;9.00;1.00;;;;;;5109071;27;20043;-87
2024/01/25 02:47:08;;;;;;;1.13;1.13;;;9.00;1.00;;;;;;5107072;27;20051;-86
2024/01/25 02:49:34;;;;;;;1.13;1.13;;;8.90;1.00;;;;;;5109621;27;20487;-86
2024/01/25 02:52:00;;;;;;;1.05;1.05;;;9.00;23.20;;;;;;5107893;27;20478;-86
2024/01/25 02:54:26;;;;;;;1.10;1.10;;;9.00;58.20;;;;;;5107776;27;20080;-85
2024/01/25 02:56:51;;;;;;;1.02;1.02;;;9.00;74.00;;;;;;5091412;27;20035;-86
2024/01/25 02:59:17;;;;;;;0.98;0.98;;;9.00;94.40;;;;;;5092995;27;20130;-86
2024/01/25 03:01:44;;;;;;;0.98;0.98;;;9.00;99.90;;;;;;5094395;27;20088;-87
2024/01/25 03:04:10;;;;;;;0.90;0.90;;;8.90;99.90;;;;;;5106570;27;20635;-87
2024/01/25 03:06:37;;;;;;;0.90;0.90;;;9.00;99.90;;;;;;5106179;27;20079;-86
2024/01/25 03:09:04;;;;;;;0.90;0.90;;;8.90;99.90;;;;;;5092306;27;20047;-86
2024/01/25 03:11:30;;;;;;;0.90;0.90;;;8.90;99.90;;;;;;5108791;27;20066;-86
2024/01/25 03:13:56;;;;;;;0.82;0.82;;;8.80;99.90;;;;;;5091842;27;20038;-87
2024/01/25 03:16:22;;;;;;;0.88;0.88;;;8.80;99.90;;;;;;5106953;27;20077;-87
2024/01/25 03:18:48;;;;;;;0.90;0.90;;;8.90;99.90;;;;;;5089663;27;20480;-87
2024/01/25 03:21:14;;;;;;;0.90;0.90;;;8.80;99.90;;;;;;5110236;27;20072;-86
2024/01/25 03:23:39;;;;;;;0.90;0.90;;;8.80;99.90;;;;;;5107662;27;20039;-87
2024/01/25 03:26:05;;;;;;;0.88;0.88;;;8.80;99.90;;;;;;5093056;27;20042;-86
2024/01/25 03:28:33;;;;;;;0.90;0.90;;;8.70;99.90;;;;;;5110350;27;20071;-87
2024/01/25 03:30:58;;;;;;;0.82;0.82;;;8.80;99.90;;;;;;5108681;27;20038;-87
2024/01/25 03:33:25;;;;;;;0.88;0.88;;;8.70;99.90;;;;;;5105494;27;22390;-86
2024/01/25 03:35:51;;;;;;;0.90;0.90;;;8.70;99.90;;;;;;5107352;27;20458;-87
2024/01/25 03:38:17;;;;;;;0.80;0.80;;;8.70;99.90;;;;;;5109480;27;20042;-87
2024/01/25 03:40:44;;;;;;;0.80;0.80;;;8.60;99.90;;;;;;5107684;27;20139;-87
2024/01/25 03:43:09;;;;;;;0.85;0.85;;;8.60;99.90;;;;;;5108615;27;20054;-86
2024/01/25 03:45:35;;;;;;;0.80;0.80;;;8.60;99.90;;;;;;5107768;27;20244;-86
2024/01/25 03:48:00;;;;;;;0.90;0.90;;;8.60;99.90;;;;;;5107697;27;20034;-87
2024/01/25 03:50:27;;;;;;;0.85;0.85;;;8.50;99.90;;;;;;5109892;27;20043;-87
2024/01/25 03:52:52;;;;;;;0.85;0.85;;;8.60;99.90;;;;;;5113162;27;20099;-86
2024/01/25 03:55:18;;;;;;;0.80;0.80;;;8.50;99.90;;;;;;5093175;27;20047;-86
2024/01/25 03:57:44;;;;;;;0.77;0.77;;;8.50;99.90;;;;;;5108284;27;20039;-87
2024/01/25 04:00:11;;;;;;;0.80;0.80;;;8.40;99.90;;;;;;5105873;27;20108;-87
2024/01/25 04:02:36;;;;;;;0.80;0.80;;;8.50;99.90;;;;;;5092726;27;20065;-86
2024/01/25 04:05:03;;;;;;;0.82;0.82;;;8.40;99.90;;;;;;5105415;27;20042;-86
2024/01/25 04:07:29;;;;;;;0.80;0.80;;;8.40;99.90;;;;;;5106954;27;20209;-87
2024/01/25 04:09:54;;;;;;;0.80;0.80;;;8.40;99.90;;;;;;5091986;27;20146;-86
2024/01/25 04:12:20;;;;;;;0.80;0.80;;;8.40;99.90;;;;;;5105987;27;20075;-87
2024/01/25 04:14:46;;;;;;;0.80;0.80;;;8.30;99.90;;;;;;5106985;27;20480;-86
2024/01/25 04:17:11;;;;;;;0.80;0.80;;;8.30;99.90;;;;;;5107161;27;20070;-87
2024/01/25 04:19:37;;;;;;;0.70;0.70;;;8.30;99.90;;;;;;5108842;27;20039;-86
2024/01/25 04:22:03;;;;;;;0.80;0.80;;;8.20;99.90;;;;;;5107995;27;20521;-87
2024/01/25 04:24:28;;;;;;;0.80;0.80;;;8.20;99.90;;;;;;5107029;27;20053;-86
2024/01/25 04:26:54;;;;;;;0.80;0.80;;;8.20;99.90;;;;;;5089603;27;20559;-86
2024/01/25 04:29:20;;;;;;;0.80;0.80;;;8.20;99.90;;;;;;5093746;27;20039;-86
2024/01/25 04:31:46;;;;;;;0.90;0.90;;;8.20;99.90;;;;;;5090522;27;20035;-88
2024/01/25 04:34:15;;;;;;;0.80;0.80;;;8.20;99.90;;;;;;5090038;27;20039;-86
2024/01/25 04:36:41;;;;;;;0.80;0.80;;;8.10;99.90;;;;;;5091240;27;20508;-87
2024/01/25 04:39:07;;;;;;;0.90;0.90;;;8.10;99.90;;;;;;5092250;28;20051;-87
2024/01/25 04:41:32;;;;;;;0.88;0.88;;;8.10;99.90;;;;;;5106753;27;20583;-86
2024/01/25 04:43:58;;;;;;;0.80;0.80;;;8.10;99.90;;;;;;5107884;27;20519;-86
2024/01/25 04:46:24;;;;;;;0.90;0.90;;;8.10;99.90;;;;;;5089790;28;20130;-87
2024/01/25 04:48:49;;;;;;;0.93;0.93;;;8.10;99.90;;;;;;5107531;27;20031;-87
2024/01/25 04:51:16;;;;;;;0.90;0.90;;;8.00;99.90;;;;;;5088977;28;20057;-86
2024/01/25 04:53:42;;;;;;;0.90;0.90;;;7.90;99.90;;;;;;5107902;27;20049;-87
2024/01/25 04:56:08;;;;;;;0.85;0.85;;;7.90;99.90;;;;;;5109047;28;20043;-87
2024/01/25 04:58:34;;;;;;;0.98;0.98;;;7.80;99.90;;;;;;5091749;27;20492;-87
2024/01/25 05:01:00;;;;;;;0.90;0.90;;;7.70;99.90;;;;;;5108947;28;20045;-86
2024/01/25 05:03:26;;;;;;;1.00;1.00;;;7.70;99.90;;;;;;5107131;27;20036;-87
2024/01/25 05:05:52;;;;;;;1.00;1.00;;;7.60;99.90;;;;;;5106934;27;20506;-87
2024/01/25 05:08:17;;;;;;;1.00;1.00;;;7.70;99.90;;;;;;5093273;27;20731;-86
2024/01/25 05:10:43;;;;;;;1.05;1.05;;;7.70;99.90;;;;;;5103927;28;20139;-87
2024/01/25 05:13:09;;;;;;;1.00;1.00;;;7.60;99.90;;;;;;5088916;27;20043;-87
2024/01/25 05:15:35;;;;;;;1.08;1.08;;;7.60;99.90;;;;;;5104991;27;20039;-87
2024/01/25 05:18:01;;;;;;;1.10;1.10;;;7.60;99.90;;;;;;5090734;27;20042;-87
2024/01/25 05:20:32;;;;;;;1.10;1.10;;;7.70;99.90;;;;;;5108893;28;20038;-87
2024/01/25 05:22:58;;;;;;;1.10;1.10;;;7.80;99.90;;;;;;5111208;27;20043;-87
2024/01/25 05:25:26;;;;;;;1.20;1.20;;;7.90;99.90;;;;;;5090135;28;20103;-87
2024/01/25 05:27:52;;;;;;;1.30;1.30;;;7.80;99.90;;;;;;5106082;28;20051;-87
2024/01/25 05:30:18;;;;;;;1.20;1.20;;;7.70;99.90;;;;;;5109063;27;20047;-87
2024/01/25 05:32:44;;;;;;;1.42;1.40;;;7.60;99.90;;;;;;5101554;28;20714;-86
2024/01/25 05:35:09;;;;;;;1.30;1.30;;;7.70;99.90;;;;;;5106903;27;20078;-86
2024/01/25 05:37:35;;;;;;;1.30;1.30;;;7.60;99.90;;;;;;5106410;27;20051;-87
2024/01/25 05:40:01;;;;;;;1.30;1.30;;;7.60;99.90;;;;;;5088548;28;20057;-87
2024/01/25 05:42:27;;;;;;;1.30;1.30;;;7.70;99.90;;;;;;5104905;28;20043;-86
2024/01/25 05:44:52;;;;;;;1.50;1.40;;;7.50;99.90;;;;;;5105196;27;20524;-87
2024/01/25 05:47:18;;;;;;;1.60;1.50;;;7.50;99.90;;;;;;5091136;28;20047;-88
2024/01/25 05:49:44;;;;;;;1.58;1.48;;;7.40;99.90;;;;;;5085703;28;20055;-88
2024/01/25 05:52:10;;;;;;;1.52;1.42;;;7.40;99.90;;;;;;5103430;27;20599;-87
2024/01/25 05:54:36;;;;;;;1.58;1.48;;;7.50;99.90;;;;;;5107495;28;20054;-87
2024/01/25 05:57:02;;;;;;;1.63;1.52;;;7.60;99.90;;;;;;5106663;27;20073;-88
2024/01/25 05:59:27;;;;;;;1.67;1.58;;;7.60;99.90;;;;;;5090917;27;20047;-87
2024/01/25 06:01:53;;;;;;;1.63;1.52;;;7.60;99.90;;;;;;5112972;27;20051;-88
2024/01/25 06:04:19;;;;;;;1.63;1.52;;;7.50;99.90;;;;;;5106296;27;20052;-87
2024/01/25 06:06:44;;;;;;;1.65;1.55;;;7.50;99.90;;;;;;5094074;27;20047;-87
2024/01/25 06:09:10;;;;;;;1.67;1.58;;;7.60;99.90;;;;;;5107548;27;20028;-87
2024/01/25 06:11:37;;;;;;;1.63;1.52;;;7.40;99.90;;;;;;5109762;27;20100;-87
2024/01/25 06:14:05;;;;;;;1.60;1.50;;;7.50;99.90;;;;;;5107801;27;20117;-87
2024/01/25 06:16:31;;;;;;;1.70;1.60;;;7.50;99.90;;;;;;5108680;27;20623;-86
2024/01/25 06:18:56;;;;;;;1.67;1.58;;;7.60;99.90;;;;;;5112558;27;20039;-87
2024/01/25 06:21:22;;;;;;;1.67;1.58;;;7.40;99.90;;;;;;5111605;27;20408;-87
2024/01/25 06:23:48;;;;;;;1.65;1.55;;;7.40;99.90;;;;;;5111876;27;20039;-86
2024/01/25 06:26:13;;;;;;;1.60;1.50;;;7.50;99.90;;;;;;5109356;27;20054;-87
2024/01/25 06:28:40;;;;;;;1.55;1.45;;;7.50;99.90;;;;;;5092776;27;20108;-87
2024/01/25 06:31:06;;;;;;;1.65;1.55;;;7.50;99.90;;;;;;5091849;27;20122;-87
2024/01/25 06:33:32;;;;;;;1.60;1.50;;;7.50;99.90;;;;;;5111620;27;20049;-87
2024/01/25 06:35:58;;;;;;;1.52;1.45;;;7.40;99.90;;;;;;5110858;27;20043;-87
2024/01/25 06:38:23;;;;;;;1.65;1.55;;;7.30;99.90;;;;;;5107131;27;20085;-86
2024/01/25 06:40:49;;;;;;;1.65;1.55;;;7.30;99.90;;;;;;5108699;27;20104;-86
2024/01/25 06:43:15;;;;;;;1.48;1.40;;;7.30;99.90;;;;;;5106402;27;20054;-86
2024/01/25 06:45:40;;;;;;;1.58;1.48;;;7.10;99.90;;;;;;5109914;27;20046;-86
2024/01/25 06:48:08;;;;;;;1.55;1.45;;;7.00;99.90;;;;;;5109465;27;20122;-87
2024/01/25 06:50:35;;;;;;;1.65;1.55;;;7.30;99.90;;;;;;5107906;27;20043;-87
2024/01/25 06:53:00;;;;;;;1.73;1.63;;;7.30;99.90;;;;;;5108448;27;20030;-87
2024/01/25 06:55:26;;;;;;;1.60;1.50;;;7.20;99.90;;;;;;5108084;27;20067;-87
2024/01/25 06:57:52;;;;;;;1.58;1.48;;;7.30;99.90;;;;;;5110381;27;20095;-87
2024/01/25 07:00:20;;;;;;;1.63;1.52;;;7.20;99.90;;;;;;5110367;27;20076;-88
2024/01/25 07:02:46;;;;;;;1.80;1.70;;;7.30;99.90;;;;;;5112913;27;20047;-87
2024/01/25 07:05:12;;;;;;;1.77;1.67;;;7.20;99.90;;;;;;5110823;27;20043;-87
2024/01/25 07:07:39;;;;;;;1.73;1.63;;;7.20;99.90;;;;;;5109781;27;20043;-87
2024/01/25 07:10:06;;;;;;;1.80;1.70;;;6.90;99.90;;;;;;5108228;27;20050;-86
2024/01/25 07:12:32;;;;;;;1.83;1.73;;;7.20;99.90;;;;;;5108169;27;20050;-87
2024/01/25 07:14:58;;;;;;;1.75;1.65;;;6.90;99.90;;;;;;5092986;27;20032;-87
2024/01/25 07:17:24;;;;;;;1.73;1.63;;;6.90;99.90;;;;;;5091096;27;20053;-87
2024/01/25 07:19:49;;;;;;;1.73;1.63;;;6.90;99.90;;;;;;5108711;27;20546;-87
2024/01/25 07:22:17;;;;;;;1.73;1.63;;;6.90;99.90;;;;;;5109070;27;20062;-86
2024/01/25 07:24:43;;;;;;;1.80;1.70;;;6.90;99.90;;;;;;5109699;27;20110;-89
2024/01/25 07:27:10;;;;;;;1.77;1.67;;;7.00;99.90;;;;;;5110605;27;20127;-87
2024/01/25 07:29:36;;;;;;;1.98;1.88;;;7.00;99.90;;;;;;5109318;27;20085;-87
2024/01/25 07:32:02;;;;;;;1.90;1.80;;;6.90;99.90;;;;;;5109612;27;20541;-86
2024/01/25 07:34:28;;;;;;;1.98;1.88;;;6.80;99.90;;;;;;5108025;27;20096;-88
2024/01/25 07:36:54;;;;;;;1.80;1.70;;;7.10;99.90;;;;;;5109929;27;20063;-88
2024/01/25 07:39:20;;;;;;;1.90;1.80;;;6.90;99.90;;;;;;5091212;27;20049;-87
2024/01/25 07:41:45;;;;;;;1.88;1.77;;;7.20;99.90;;;;;;5107736;27;20111;-87
2024/01/25 07:44:11;;;;;;;1.77;1.67;;;7.20;99.90;;;;;;5107265;27;20043;-86
2024/01/25 07:46:37;;;;;;;1.92;1.83;;;7.00;99.90;;;;;;5107225;27;20039;-87
2024/01/25 07:49:03;;;;;;;1.85;1.75;;;7.20;99.90;;;;;;5109527;27;20043;-87
2024/01/25 07:51:28;;;;;;;1.95;1.85;;;7.00;99.90;;;;;;5110842;27;20051;-87
2024/01/25 07:53:54;;;;;;;1.88;1.77;;;7.30;99.90;;;;;;5109867;27;20114;-86
2024/01/25 07:56:21;;;;;;;1.83;1.73;;;7.30;99.90;;;;;;5110634;27;20032;-87
2024/01/25 07:58:51;;;;;;;1.90;1.80;;;7.10;99.90;;;;;;5092685;27;20035;-87
2024/01/25 08:01:20;;;;;;;1.80;1.70;;;7.20;99.90;;;;;;5088700;27;20496;-89
2024/01/25 08:03:46;;;;;;;2.00;1.90;;;7.40;99.90;;;;;;5109909;27;20043;-87
2024/01/25 08:06:12;;;;;;;1.80;1.70;;;7.30;99.90;;;;;;5089173;27;20053;-88
2024/01/25 08:08:38;;;;;;;1.85;1.75;;;7.40;99.90;;;;;;5093658;27;20039;-87
2024/01/25 08:11:05;;;;;;;1.95;1.85;;;7.50;99.90;;;;;;5110734;27;20043;-88
2024/01/25 08:13:31;;;;;;;1.75;1.65;;;7.30;99.90;;;;;;5094872;27;20043;-87
2024/01/25 08:15:57;;;;;;;1.73;1.63;;;7.40;99.90;;;;;;5109194;27;20130;-87
2024/01/25 08:18:23;;;;;;;1.90;1.80;;;7.40;99.90;;;;;;5091843;27;20047;-86
2024/01/25 08:20:50;;;;;;;1.90;1.80;;;7.70;99.90;;;;;;5108370;28;20103;-87
2024/01/25 08:23:16;;;;;;;1.95;1.85;;;7.50;99.90;;;;;;5092178;27;20046;-87
2024/01/25 08:25:42;;;;;;;2.03;1.92;;;7.70;99.90;;;;;;5109234;27;20122;-87
2024/01/25 08:28:07;;;;;;;2.05;1.95;;;7.80;99.90;;;;;;5111323;27;20130;-87
2024/01/25 08:30:36;;;;;;;2.00;1.90;;;7.90;99.90;;;;;;5091836;27;20055;-87
2024/01/25 08:33:03;;;;;;;2.05;1.95;;;7.80;99.90;;;;;;5110684;27;20051;-87
2024/01/25 08:35:30;;;;;;;2.17;2.08;;;7.80;99.90;;;;;;5092630;28;20062;-87
2024/01/25 08:37:56;;;;;;;2.10;2.00;;;7.80;99.90;;;;;;5092649;27;20042;-87
2024/01/25 08:40:21;;;;;;;2.08;1.98;;;8.00;99.90;;;;;;5108654;27;20103;-87
2024/01/25 08:42:47;;;;;;;2.17;2.08;;;7.90;99.90;;;;;;5091666;28;20039;-87
2024/01/25 08:45:13;;;;;;;2.10;2.00;;;8.00;99.90;;;;;;5108673;28;20557;-87
2024/01/25 08:47:39;;;;;;;2.03;1.92;;;7.80;99.90;;;;;;5106484;28;20126;-87
2024/01/25 08:50:10;;;;;;;2.10;2.00;;;8.00;99.90;;;;;;5107737;28;20134;-87
2024/01/25 08:52:40;;;;;;;1.90;1.80;;;8.00;99.90;;;;;;5112307;27;20042;-86
2024/01/25 08:55:06;;;;;;;1.95;1.85;;;8.10;99.90;;;;;;5088756;28;20043;-87
2024/01/25 08:57:32;;;;;;;1.70;1.60;;;8.00;99.90;;;;;;5105041;28;20035;-87
2024/01/25 08:59:58;;;;;;;1.70;1.60;;;8.10;99.90;;;;;;5089974;28;20066;-87
2024/01/25 09:02:27;;;;;;;1.60;1.50;;;8.10;99.90;;;;;;5099824;28;20043;-87
2024/01/25 09:04:53;;;;;;;1.60;1.50;;;8.10;99.90;;;;;;5103466;28;20144;-88
2024/01/25 09:07:19;;;;;;;1.50;1.40;;;8.30;99.90;;;;;;5104274;28;20047;-87
2024/01/25 09:09:45;;;;;;;1.60;1.50;;;8.40;99.90;;;;;;5108347;28;20039;-87
2024/01/25 09:12:12;;;;;;;1.30;1.30;;;8.40;99.90;;;;;;5107759;28;20039;-86
2024/01/25 09:14:38;;;;;;;1.20;1.20;;;8.40;99.90;;;;;;5106171;28;20046;-86
2024/01/25 09:17:04;;;;;;;1.20;1.20;;;8.40;99.90;;;;;;5106766;27;20043;-87
2024/01/25 09:19:31;;;;;;;1.20;1.20;;;8.20;99.90;;;;;;5092274;28;20060;-87
2024/01/25 09:21:59;;;;;;;1.20;1.20;;;8.40;99.90;;;;;;5091460;27;20172;-86
2024/01/25 09:24:25;;;;;;;1.10;1.10;;;8.40;99.90;;;;;;5092669;28;20667;-88
2024/01/25 09:26:51;;;;;;;1.10;1.10;;;8.60;99.90;;;;;;5109664;28;20039;-87
2024/01/25 09:29:17;;;;;;;1.10;1.10;;;8.60;99.90;;;;;;5108147;28;20043;-88
2024/01/25 09:31:42;;;;;;;1.00;1.00;;;8.80;99.90;;;;;;5108846;27;20054;-87
2024/01/25 09:34:08;;;;;;;1.10;1.10;;;8.90;99.90;;;;;;5114676;27;20043;-86
2024/01/25 09:36:34;;;;;;;0.90;0.90;;;9.00;99.90;;;;;;5111768;27;20051;-87
2024/01/25 09:38:59;;;;;;;0.98;0.98;;;9.20;99.90;;;;;;5095704;27;20236;-88
2024/01/25 09:41:25;;;;;;;1.00;1.00;;;9.30;99.90;;;;;;5112860;27;20403;-87
2024/01/25 09:43:52;;;;;;;0.90;0.90;;;9.30;99.90;;;;;;5110690;27;20042;-87
2024/01/25 09:46:18;;;;;;;1.00;1.00;;;9.40;99.90;;;;;;5111838;27;20043;-87
2024/01/25 09:48:46;;;;;;;1.00;1.00;;;9.40;99.90;;;;;;5112811;27;20392;-86
2024/01/25 09:51:12;;;;;;;1.00;1.00;;;9.40;99.90;;;;;;5110582;27;20050;-88
2024/01/25 09:53:41;;;;;;;0.90;0.90;;;9.40;99.90;;;;;;5095320;27;20041;-87
2024/01/25 09:56:12;;;;;;;0.90;0.90;;;9.40;99.90;;;;;;5111837;27;20086;-87
2024/01/25 09:58:42;;;;;;;0.90;0.90;;;9.40;99.90;;;;;;5109746;27;20047;-86
2024/01/25 10:01:12;;;;;;;1.00;1.00;;;9.40;99.90;;;;;;5110648;27;20169;-86
2024/01/25 10:03:41;;;;;;;1.00;1.00;;;9.40;99.90;;;;;;5091941;27;20035;-86
2024/01/25 10:06:08;;;;;;;0.93;0.93;;;9.50;99.90;;;;;;5094116;27;20131;-87
2024/01/25 10:08:34;;;;;;;1.00;1.00;;;9.40;99.90;;;;;;5111431;27;20405;-87
2024/01/25 10:11:00;;;;;;;1.00;1.00;;;9.40;99.90;;;;;;5092857;27;20046;-86
2024/01/25 10:13:27;;;;;;;1.00;1.00;;;9.50;99.90;;;;;;5109656;27;20039;-87
2024/01/25 10:15:54;;;;;;;0.95;0.95;;;9.60;99.90;;;;;;5110235;27;20067;-87
2024/01/25 10:18:20;;;;;;;1.00;1.00;;;9.60;99.90;;;;;;5090760;27;20074;-87
2024/01/25 10:20:45;;;;;;;1.00;1.00;;;9.60;99.90;;;;;;5112161;27;20102;-87
2024/01/25 10:23:11;;;;;;;1.00;1.00;;;9.80;99.90;;;;;;5090775;27;20067;-87
2024/01/25 10:25:37;;;;;;;1.05;1.05;;;9.90;99.90;;;;;;5110188;27;20043;-87
2024/01/25 10:28:04;;;;;;;1.00;1.00;;;10.00;99.90;;;;;;5092446;27;20047;-87
2024/01/25 10:30:35;;;;;;;1.10;1.10;;;10.10;99.90;;;;;;5110456;27;20091;-87
2024/01/25 10:33:01;;;;;;;1.10;1.10;;;10.10;99.90;;;;;;5110384;27;20067;-87
2024/01/25 10:35:27;;;;;;;1.10;1.10;;;10.30;99.90;;;;;;5105421;27;20066;-85
2024/01/25 10:37:54;;;;;;;1.10;1.10;;;10.40;99.90;;;;;;5109359;27;20500;-88
2024/01/25 10:40:20;;;;;;;1.25;1.25;;;10.60;99.90;;;;;;5106015;27;20050;-87
2024/01/25 10:42:47;;;;;;;1.30;1.30;;;10.60;99.90;;;;;;5110286;27;20035;-87
2024/01/25 10:45:13;;;;;;;1.30;1.30;;;10.60;99.90;;;;;;5109628;27;20046;-87
2024/01/25 10:47:40;;;;;;;1.73;1.63;;;10.60;99.90;;;;;;5110532;27;20035;-87
2024/01/25 10:50:10;;;;;;;1.40;1.35;;;10.70;99.90;;;;;;5110731;27;20051;-87
2024/01/25 10:52:38;;;;;;;1.48;1.40;;;10.70;99.90;;;;;;5092581;27;20071;-85
2024/01/25 10:55:05;;;;;;;1.50;1.40;;;10.60;99.90;;;;;;5104485;27;20058;-85
2024/01/25 10:57:39;;;;;;;1.60;1.50;;;10.60;99.90;;;;;;5109706;27;20608;-87
2024/01/25 11:00:11;;;;;;;2.03;1.92;;;10.70;99.90;;;;;;5094216;27;20047;-88
2024/01/25 11:02:39;;;;;;;1.60;1.50;;;10.70;99.90;;;;;;5107525;27;20072;-89
2024/01/25 11:05:13;;;;;;;1.70;1.60;;;10.70;99.90;;;;;;5108362;27;20043;-86
2024/01/25 11:07:46;;;;;;;1.80;1.70;;;10.80;60.40;;;;;;5110438;27;20050;-87
2024/01/25 11:10:21;;;;;;;1.50;1.40;;;11.00;99.20;;;;;;5107861;27;20112;-87
2024/01/25 11:12:51;;;;;;;1.60;1.50;;;11.00;44.60;;;;;;5093237;27;20100;-87
2024/01/25 11:15:22;;;;;;;1.80;1.70;;;11.10;1.00;;;;;;5108920;27;20529;-88
2024/01/25 11:17:53;;;;;;;1.90;1.80;;;11.10;1.00;;;;;;5107324;27;20058;-86
2024/01/25 11:20:21;;;;;;;1.80;1.70;;;11.10;99.90;;;;;;5109630;27;20047;-88
2024/01/25 11:22:47;;;;;;;1.60;1.50;;;11.10;99.90;;;;;;5090874;27;20556;-88
2024/01/25 11:25:20;;;;;;;1.98;1.88;;;11.20;99.90;;;;;;5105008;27;20032;-87
2024/01/25 11:27:46;;;;;;;1.95;1.85;;;11.10;99.90;;;;;;5101053;27;20066;-86
2024/01/25 11:30:13;;;;;;;1.60;1.50;;;11.20;99.90;;;;;;5100570;27;20408;-86
2024/01/25 11:32:39;;;;;;;1.98;1.88;;;11.40;99.90;;;;;;5101458;27;20092;-88
2024/01/25 11:35:08;;;;;;;1.60;1.50;;;11.50;99.90;;;;;;5101978;27;20719;-87
2024/01/25 11:37:34;;;;;;;1.75;1.65;;;11.60;99.90;;;;;;5106003;27;20050;-88
2024/01/25 11:39:59;;;;;;;1.70;1.60;;;11.70;99.90;;;;;;5108085;27;20058;-87
2024/01/25 11:42:25;;;;;;;1.30;1.30;;;11.80;99.90;;;;;;5103079;27;20047;-86
2024/01/25 11:44:51;;;;;;;1.25;1.25;;;12.00;93.60;;;;;;5107679;27;20043;-87
2024/01/25 11:47:19;;;;;;;1.45;1.40;;;12.10;1.00;;;;;;5109751;27;20046;-86
2024/01/25 11:49:45;;;;;;;1.50;1.42;;;12.20;1.00;;;;;;5107136;27;20654;-87
2024/01/25 11:52:10;;;;;;;1.25;1.25;;;12.30;1.00;;;;;;5111151;27;20042;-88
2024/01/25 11:54:36;;;;;;;1.48;1.40;;;12.20;99.90;;;;;;5108112;27;20067;-87
2024/01/25 11:57:02;;;;;;;1.45;1.38;;;12.30;99.90;;;;;;5093050;27;20035;-87
2024/01/25 11:59:28;;;;;;;1.20;1.20;;;12.40;99.90;;;;;;5104703;27;20058;-87
2024/01/25 12:01:53;;;;;;;1.63;1.52;;;12.40;99.90;;;;;;5108271;27;20112;-87
2024/01/25 12:04:19;;;;;;;1.55;1.45;;;12.30;99.90;;;;;;5106830;27;20055;-87
2024/01/25 12:06:47;;;;;;;1.30;1.30;;;12.10;99.90;;;;;;5108941;27;20045;-87
2024/01/25 12:09:16;;;;;;;1.52;1.42;;;12.20;99.90;;;;;;5091354;27;20055;-87
2024/01/25 12:11:42;;;;;;;1.73;1.63;;;12.10;99.90;;;;;;5104352;27;20797;-88
2024/01/25 12:14:10;;;;;;;1.55;1.45;;;12.00;99.90;;;;;;5107488;27;20126;-86
2024/01/25 12:16:36;;;;;;;1.60;1.50;;;12.00;99.90;;;;;;5108324;27;20035;-87
2024/01/25 12:19:02;;;;;;;1.50;1.40;;;12.00;99.90;;;;;;5108027;27;20545;-87
2024/01/25 12:21:28;;;;;;;1.60;1.50;;;11.90;99.90;;;;;;5108511;27;20377;-87
2024/01/25 12:23:54;;;;;;;1.40;1.40;;;12.00;99.90;;;;;;5092266;27;20046;-87
2024/01/25 12:26:19;;;;;;;1.30;1.30;;;11.90;99.90;;;;;;5109305;27;20177;-87
2024/01/25 12:28:46;;;;;;;1.83;1.73;;;11.90;99.90;;;;;;5108610;27;20475;-87
2024/01/25 12:31:12;;;;;;;1.95;1.85;;;11.90;99.90;;;;;;5109314;27;20393;-86
2024/01/25 12:33:37;;;;;;;1.38;1.35;;;11.80;99.90;;;;;;5108660;27;20069;-86
2024/01/25 12:36:04;;;;;;;1.20;1.20;;;11.70;99.90;;;;;;5108849;27;20119;-85
2024/01/25 12:38:33;;;;;;;1.30;1.30;;;11.70;99.90;;;;;;5107496;27;20050;-86
2024/01/25 12:40:59;;;;;;;1.73;1.63;;;11.70;99.90;;;;;;5109177;27;20062;-86
2024/01/25 12:43:25;;;;;;;1.55;1.45;;;11.70;99.90;;;;;;5107501;27;20047;-86
2024/01/25 12:45:51;;;;;;;1.20;1.20;;;11.60;99.90;;;;;;5108501;28;20430;-85
2024/01/25 12:48:17;;;;;;;1.80;1.70;;;11.60;1.00;;;;;;5106822;27;20154;-87
2024/01/25 12:50:44;;;;;;;1.30;1.30;;;11.50;1.00;;;;;;5107076;28;20039;-86